Time;durP1;ratioP1;P1;durP2;ratioP2;P2;SDS_P1;SDS_P2;PMS_P1;PMS_P2;Temp;Humidity;BMP_temperature;BMP_pressure;BME280_temperature;BME280_humidity;BME280_pressure;Samples;Min_cycle;Max_cycle;Signal;HPM_P1;HPM_P2
2022/05/29 00:01:47;;;;;;;;;;;13.90;79.60;;;;;;5067467;28;20028;-80
2022/05/29 00:04:14;;;;;;;;;;;13.80;79.50;;;;;;5071471;28;20517;-80
2022/05/29 00:06:42;;;;;;;;;;;13.80;79.50;;;;;;5071500;28;19987;-80
2022/05/29 00:09:11;;;;;;;;;;;13.80;79.60;;;;;;5057032;28;19928;-80
2022/05/29 00:11:38;;;;;;;;;;;13.80;79.60;;;;;;5070736;28;19924;-79
2022/05/29 00:14:05;;;;;;;;;;;13.80;79.60;;;;;;5071190;28;20009;-80
2022/05/29 00:16:32;;;;;;;;;;;13.80;79.60;;;;;;5074310;28;20453;-80
2022/05/29 00:19:00;;;;;;;;;;;13.70;79.60;;;;;;5070266;28;20006;-80
2022/05/29 00:21:29;;;;;;;;;;;13.70;79.60;;;;;;5072225;28;19963;-80
2022/05/29 00:23:56;;;;;;;;;;;13.70;79.70;;;;;;5088511;22;19932;-79
2022/05/29 00:26:23;;;;;;;;;;;13.60;79.60;;;;;;5104330;28;19928;-80
2022/05/29 00:28:50;;;;;;;;;;;13.60;79.70;;;;;;5102791;28;19931;-80
2022/05/29 00:31:17;;;;;;;;;;;13.60;79.70;;;;;;5104742;28;19924;-80
2022/05/29 00:33:44;;;;;;;;;;;13.60;79.70;;;;;;5098273;28;19950;-80
2022/05/29 00:36:15;;;;;;;;;;;13.50;79.60;;;;;;5105716;28;19924;-80
2022/05/29 00:38:42;;;;;;;;;;;13.50;79.70;;;;;;5106093;28;19924;-80
2022/05/29 00:41:17;;;;;;;;;;;13.50;79.80;;;;;;5102926;28;20027;-79
2022/05/29 00:43:44;;;;;;;;;;;13.50;79.90;;;;;;5098207;28;19980;-80
2022/05/29 00:46:12;;;;;;;;;;;13.40;79.70;;;;;;5100354;28;19928;-79
2022/05/29 00:48:39;;;;;;;;;;;13.40;79.80;;;;;;5107346;28;20305;-81
2022/05/29 00:51:09;;;;;;;;;;;13.40;79.50;;;;;;5106150;28;20308;-79
2022/05/29 00:53:38;;;;;;;;;;;13.40;79.70;;;;;;5101572;28;20408;-80
2022/05/29 00:56:07;;;;;;;;;;;13.40;79.80;;;;;;5105821;28;20298;-80
2022/05/29 00:58:34;;;;;;;;;;;13.30;79.80;;;;;;5105197;28;20321;-80
2022/05/29 01:01:04;;;;;;;;;;;13.30;79.70;;;;;;5098480;28;19924;-80
2022/05/29 01:03:30;;;;;;;;;;;13.20;79.70;;;;;;5102292;28;19951;-80
2022/05/29 01:05:57;;;;;;;;;;;13.20;79.80;;;;;;5107810;28;19924;-80
2022/05/29 01:08:27;;;;;;;;;;;13.20;79.80;;;;;;5103314;28;20286;-80
2022/05/29 01:11:03;;;;;;;;;;;13.20;79.70;;;;;;5100018;28;19928;-81
2022/05/29 01:13:32;;;;;;;;;;;13.20;79.80;;;;;;5102844;28;19930;-80
2022/05/29 01:16:03;;;;;;;;;;;13.20;79.80;;;;;;5106353;28;19930;-80
2022/05/29 01:18:35;;;;;;;;;;;13.10;79.70;;;;;;5124946;27;20409;-80
2022/05/29 01:21:13;;;;;;;;;;;13.10;79.70;;;;;;5100432;28;19947;-80
2022/05/29 01:23:59;;;;;;;;;;;13.10;79.70;;;;;;5103705;28;19928;-79
2022/05/29 01:26:39;;;;;;;;;;;13.00;79.80;;;;;;5102067;28;19928;-80
2022/05/29 01:29:09;;;;;;;;;;;13.00;79.70;;;;;;5096462;28;19924;-80
2022/05/29 01:31:41;;;;;;;;;;;12.90;79.60;;;;;;5103071;28;20378;-80
2022/05/29 01:34:14;;;;;;;;;;;12.90;79.70;;;;;;5102786;28;19928;-80
2022/05/29 01:36:44;;;;;;;;;;;12.90;79.80;;;;;;5102477;28;20305;-80
2022/05/29 01:39:16;;;;;;;;;;;12.90;79.80;;;;;;5102752;28;19939;-80
2022/05/29 01:41:54;;;;;;;;;;;12.90;79.80;;;;;;5096789;28;20018;-80
2022/05/29 01:44:25;;;;;;;;;;;12.90;79.90;;;;;;5101524;28;19924;-80
2022/05/29 01:46:55;;;;;;;;;;;12.80;79.70;;;;;;5102232;28;19924;-80
2022/05/29 01:49:25;;;;;;;;;;;12.80;79.80;;;;;;5098354;28;19924;-80
2022/05/29 01:51:53;;;;;;;;;;;12.80;79.80;;;;;;5102284;28;20405;-80
2022/05/29 01:54:22;;;;;;;;;;;12.70;79.70;;;;;;5101777;28;19927;-80
2022/05/29 01:56:50;;;;;;;;;;;12.70;79.80;;;;;;5103513;28;19923;-79
2022/05/29 01:59:20;;;;;;;;;;;12.70;79.70;;;;;;5104389;28;19928;-79
2022/05/29 02:01:49;;;;;;;;;;;12.70;79.70;;;;;;5105431;27;20416;-80
2022/05/29 02:04:17;;;;;;;;;;;12.60;79.70;;;;;;5100997;28;20416;-81
2022/05/29 02:09:33;;;;;;;;;;;12.60;79.70;;;;;;5093361;28;19919;-78
2022/05/29 02:12:01;;;;;;;;;;;12.60;79.60;;;;;;5106008;28;19924;-80
2022/05/29 02:14:32;;;;;;;;;;;12.60;79.70;;;;;;5107773;28;19947;-79
2022/05/29 02:17:03;;;;;;;;;;;12.50;79.70;;;;;;5094608;28;19984;-79
2022/05/29 02:19:32;;;;;;;;;;;12.50;79.80;;;;;;5093820;28;19928;-79
2022/05/29 02:22:02;;;;;;;;;;;12.50;79.70;;;;;;5102610;28;19927;-80
2022/05/29 02:24:32;;;;;;;;;;;12.50;79.80;;;;;;5110107;28;19935;-80
2022/05/29 02:27:02;;;;;;;;;;;12.50;79.90;;;;;;5105600;28;19931;-79
2022/05/29 02:29:30;;;;;;;;;;;12.50;79.90;;;;;;5111955;28;19957;-81
2022/05/29 02:32:01;;;;;;;;;;;12.50;79.90;;;;;;5104696;28;19931;-80
2022/05/29 02:34:32;;;;;;;;;;;12.50;80.00;;;;;;5112394;28;20107;-80
2022/05/29 02:37:06;;;;;;;;;;;12.40;79.90;;;;;;5104572;28;19931;-79
2022/05/29 02:39:42;;;;;;;;;;;12.40;80.10;;;;;;5095429;28;19924;-80
2022/05/29 02:42:16;;;;;;;;;;;12.40;80.20;;;;;;5099226;28;20404;-80
2022/05/29 02:44:49;;;;;;;;;;;12.40;80.10;;;;;;5102500;28;20403;-80
2022/05/29 02:47:27;;;;;;;;;;;12.40;80.10;;;;;;5104593;28;19931;-80
2022/05/29 02:50:19;;;;;;;;;;;12.40;80.20;;;;;;5099921;28;19976;-80
2022/05/29 02:52:47;;;;;;;;;;;12.40;80.30;;;;;;5094506;28;19931;-79
2022/05/29 02:55:14;;;;;;;;;;;12.30;80.20;;;;;;5104907;28;19930;-81
2022/05/29 02:57:41;;;;;;;;;;;12.30;80.80;;;;;;5099223;27;20003;-80
2022/05/29 03:00:12;;;;;;;;;;;12.30;80.10;;;;;;5099860;28;19939;-80
2022/05/29 03:02:41;;;;;;;;;;;12.30;80.30;;;;;;5100552;28;19981;-79
2022/05/29 03:05:11;;;;;;;;;;;12.30;80.40;;;;;;5095681;28;19980;-80
2022/05/29 03:07:42;;;;;;;;;;;12.30;80.40;;;;;;5097408;28;20895;-80
2022/05/29 03:10:15;;;;;;;;;;;12.30;80.40;;;;;;5097096;28;20419;-80
2022/05/29 03:12:51;;;;;;;;;;;12.30;80.50;;;;;;5103378;28;19946;-80
2022/05/29 03:15:34;;;;;;;;;;;12.20;80.40;;;;;;5101298;28;19927;-80
2022/05/29 03:18:23;;;;;;;;;;;12.20;80.40;;;;;;5102608;28;20287;-80
2022/05/29 03:20:54;;;;;;;;;;;12.20;80.40;;;;;;5091156;28;19993;-80
2022/05/29 03:23:28;;;;;;;;;;;12.20;80.20;;;;;;5096115;28;19935;-79
2022/05/29 03:25:56;;;;;;;;;;;12.20;80.40;;;;;;5103828;28;19936;-80
2022/05/29 03:28:26;;;;;;;;;;;12.20;80.50;;;;;;5099777;28;19924;-80
2022/05/29 03:30:53;;;;;;;;;;;12.20;80.50;;;;;;5096996;28;20019;-80
2022/05/29 03:33:20;;;;;;;;;;;12.20;80.50;;;;;;5100148;28;19924;-80
2022/05/29 03:36:03;;;;;;;;;;;12.10;80.20;;;;;;5103873;28;19932;-80
2022/05/29 03:38:31;;;;;;;;;;;12.00;80.20;;;;;;5093438;28;19928;-80
2022/05/29 03:40:58;;;;;;;;;;;11.90;80.40;;;;;;5100405;28;20385;-79
2022/05/29 03:43:25;;;;;;;;;;;11.80;80.60;;;;;;5103126;28;19935;-80
2022/05/29 03:45:52;;;;;;;;;;;11.70;80.70;;;;;;5095757;28;20398;-79
2022/05/29 03:48:19;;;;;;;;;;;11.70;80.90;;;;;;5096920;28;19928;-80
2022/05/29 03:50:46;;;;;;;;;;;11.70;81.20;;;;;;5096709;28;20830;-79
2022/05/29 03:53:13;;;;;;;;;;;11.70;81.30;;;;;;5096803;28;19924;-80
2022/05/29 03:55:42;;;;;;;;;;;11.70;81.30;;;;;;5091812;28;19988;-79
2022/05/29 03:58:08;;;;;;;;;;;11.60;81.00;;;;;;5094802;28;19943;-79
2022/05/29 04:00:35;;;;;;;;;;;11.60;81.20;;;;;;5102550;28;20297;-80
2022/05/29 04:03:03;;;;;;;;;;;11.60;81.40;;;;;;5098971;28;20317;-79
2022/05/29 04:05:30;;;;;;;;;;;11.50;81.40;;;;;;5096121;28;19924;-80
2022/05/29 04:13:29;;;;;;;;;;;11.50;81.30;;;;;;5096966;28;19953;-80
2022/05/29 04:15:56;;;;;;;;;;;11.40;81.70;;;;;;5097325;28;20031;-80
2022/05/29 04:18:23;;;;;;;;;;;11.40;81.70;;;;;;5106102;28;19930;-79
2022/05/29 04:20:51;;;;;;;;;;;11.40;81.60;;;;;;5102643;28;19928;-80
2022/05/29 04:23:17;;;;;;;;;;;11.40;81.80;;;;;;5035736;28;1900159;-80
2022/05/29 04:25:46;;;;;;;;;;;11.40;82.00;;;;;;5106524;28;19924;-80
2022/05/29 04:28:13;;;;;;;;;;;11.40;82.10;;;;;;5099282;28;20030;-80
2022/05/29 04:30:41;;;;;;;;;;;11.40;82.10;;;;;;5100369;28;20373;-79
2022/05/29 04:33:08;;;;;;;;;;;11.30;82.10;;;;;;5104636;28;19924;-80
2022/05/29 04:35:37;;;;;;;;;;;11.30;82.10;;;;;;5104400;28;19947;-79
2022/05/29 04:38:04;;;;;;;;;;;11.30;82.10;;;;;;5100694;28;19935;-80
2022/05/29 04:40:31;;;;;;;;;;;11.30;82.30;;;;;;5107603;27;19953;-80
2022/05/29 04:42:59;;;;;;;;;;;11.20;82.20;;;;;;5100908;28;19924;-80
2022/05/29 04:45:27;;;;;;;;;;;11.20;82.40;;;;;;5102886;28;19930;-80
2022/05/29 04:47:54;;;;;;;;;;;11.20;83.40;;;;;;5094980;28;19975;-80
2022/05/29 04:50:21;;;;;;;;;;;11.20;82.10;;;;;;5103259;28;19975;-80
2022/05/29 04:52:50;;;;;;;;;;;11.20;82.70;;;;;;5098235;28;20015;-79
2022/05/29 04:55:17;;;;;;;;;;;11.20;82.60;;;;;;5098108;28;19962;-80
2022/05/29 04:57:44;;;;;;;;;;;11.10;82.50;;;;;;5106668;28;20800;-80
2022/05/29 05:00:13;;;;;;;;;;;11.10;82.80;;;;;;5107512;28;19924;-79
2022/05/29 05:02:40;;;;;;;;;;;11.00;82.90;;;;;;5100477;28;19924;-80
2022/05/29 05:05:08;;;;;;;;;;;11.00;83.20;;;;;;5103034;28;19946;-80
2022/05/29 05:07:35;;;;;;;;;;;11.00;83.30;;;;;;5099001;27;20416;-80
2022/05/29 05:10:02;;;;;;;;;;;11.00;83.50;;;;;;5105745;28;19937;-80
2022/05/29 05:12:29;;;;;;;;;;;11.00;83.60;;;;;;5096113;28;19924;-80
2022/05/29 05:14:56;;;;;;;;;;;11.00;83.70;;;;;;5104688;28;20357;-80
2022/05/29 05:17:25;;;;;;;;;;;11.00;83.90;;;;;;5101069;28;20465;-80
2022/05/29 05:19:52;;;;;;;;;;;11.00;83.90;;;;;;5100665;28;19946;-78
2022/05/29 05:22:19;;;;;;;;;;;11.00;84.10;;;;;;5099369;28;19946;-80
2022/05/29 05:24:46;;;;;;;;;;;11.10;84.30;;;;;;5100571;28;19935;-80
2022/05/29 05:27:13;;;;;;;;;;;11.10;84.40;;;;;;5104626;27;19924;-79
2022/05/29 05:29:40;;;;;;;;;;;11.10;84.40;;;;;;5102735;28;20347;-80
2022/05/29 05:32:07;;;;;;;;;;;11.20;84.50;;;;;;5105866;28;19932;-80
2022/05/29 05:34:35;;;;;;;;;;;11.20;84.50;;;;;;5100127;28;19924;-80
2022/05/29 05:37:03;;;;;;;;;;;11.20;84.60;;;;;;5103108;28;20012;-80
2022/05/29 05:39:30;;;;;;;;;;;11.20;84.50;;;;;;5096553;28;19938;-79
2022/05/29 05:42:04;;;;;;;;;;;11.30;84.80;;;;;;5093869;28;19931;-80
2022/05/29 05:44:31;;;;;;;;;;;11.30;84.70;;;;;;5100739;28;20493;-80
2022/05/29 05:47:01;;;;;;;;;;;11.30;84.80;;;;;;5103750;28;20013;-80
2022/05/29 05:49:28;;;;;;;;;;;11.40;84.90;;;;;;5089814;28;19931;-79
2022/05/29 05:51:58;;;;;;;;;;;11.40;85.40;;;;;;5104753;28;19989;-84
2022/05/29 05:54:25;;;;;;;;;;;11.40;84.70;;;;;;5094293;28;20333;-81
2022/05/29 05:56:52;;;;;;;;;;;11.40;84.90;;;;;;5099838;28;19931;-80
2022/05/29 05:59:19;;;;;;;;;;;11.40;84.80;;;;;;5101638;28;19932;-79
2022/05/29 06:01:46;;;;;;;;;;;11.50;85.00;;;;;;5099860;28;19930;-81
2022/05/29 06:04:14;;;;;;;;;;;11.50;85.00;;;;;;5100185;28;19924;-78
2022/05/29 06:06:41;;;;;;;;;;;11.50;85.00;;;;;;5101033;28;19924;-79
2022/05/29 06:09:09;;;;;;;;;;;11.50;85.20;;;;;;5096204;28;19928;-78
2022/05/29 06:11:39;;;;;;;;;;;11.60;85.50;;;;;;5095874;28;19977;-79
2022/05/29 06:14:06;;;;;;;;;;;11.60;85.50;;;;;;5084879;28;20001;-78
2022/05/29 06:16:33;;;;;;;;;;;11.70;85.70;;;;;;5104987;28;19927;-85
2022/05/29 06:19:00;;;;;;;;;;;11.70;85.50;;;;;;5098231;28;19932;-81
2022/05/29 06:21:27;;;;;;;;;;;11.70;85.60;;;;;;5102317;28;19928;-81
2022/05/29 06:23:54;;;;;;;;;;;11.80;85.60;;;;;;5098396;28;19931;-78
2022/05/29 06:26:23;;;;;;;;;;;11.80;85.70;;;;;;5098199;28;19923;-84
2022/05/29 06:28:53;;;;;;;;;;;11.80;85.70;;;;;;5083712;28;20054;-80
2022/05/29 06:31:20;;;;;;;;;;;11.80;85.80;;;;;;5084765;27;19950;-79
2022/05/29 06:33:47;;;;;;;;;;;11.80;85.90;;;;;;5085739;28;19923;-78
2022/05/29 06:36:16;;;;;;;;;;;11.90;86.00;;;;;;5056338;22;19932;-84
2022/05/29 06:38:48;;;;;;;;;;;11.90;86.20;;;;;;5032337;28;20343;-83
2022/05/29 06:41:21;;;;;;;;;;;11.90;86.20;;;;;;5016701;28;20403;-83
2022/05/29 06:43:50;;;;;;;;;;;11.90;86.10;;;;;;5022823;28;19947;-85
2022/05/29 06:46:20;;;;;;;;;;;12.00;86.20;;;;;;5036766;28;19926;-84
2022/05/29 06:48:49;;;;;;;;;;;12.00;86.20;;;;;;5073871;22;20413;-92
2022/05/29 06:51:19;;;;;;;;;;;12.00;86.20;;;;;;5083219;28;19928;-92
2022/05/29 06:53:46;;;;;;;;;;;12.00;86.30;;;;;;5078082;28;19928;-92
2022/05/29 06:56:13;;;;;;;;;;;12.00;86.30;;;;;;5080893;28;19964;-93
2022/05/29 06:58:40;;;;;;;;;;;12.00;86.40;;;;;;5081927;28;19924;-92
2022/05/29 07:09:23;;;;;;;;;;;12.00;86.30;;;;;;5071484;28;19928;-92
2022/05/29 07:11:52;;;;;;;;;;;12.00;86.10;;;;;;5095463;28;19928;-92
2022/05/29 07:14:20;;;;;;;;;;;12.10;86.20;;;;;;5074340;28;19928;-92
2022/05/29 07:16:48;;;;;;;;;;;12.10;86.40;;;;;;5084694;28;20385;-92
2022/05/29 07:19:15;;;;;;;;;;;12.10;86.30;;;;;;5081358;28;20328;-92
2022/05/29 07:21:43;;;;;;;;;;;12.10;86.30;;;;;;5085607;28;19928;-93
2022/05/29 07:24:11;;;;;;;;;;;12.10;86.30;;;;;;5098883;28;19924;-91
2022/05/29 07:26:37;;;;;;;;;;;12.10;86.20;;;;;;5084004;28;19924;-91
2022/05/29 07:29:05;;;;;;;;;;;12.10;86.10;;;;;;5083620;28;19924;-92
2022/05/29 07:31:32;;;;;;;;;;;12.10;86.10;;;;;;5077915;28;19990;-92
2022/05/29 07:34:01;;;;;;;;;;;12.10;86.70;;;;;;5082234;28;19947;-92
2022/05/29 07:36:28;;;;;;;;;;;12.20;86.50;;;;;;5079127;28;19925;-92
2022/05/29 07:38:55;;;;;;;;;;;12.20;86.20;;;;;;5087148;28;19924;-92
2022/05/29 07:44:06;;;;;;;;;;;12.20;86.10;;;;;;5086403;28;20397;-92
2022/05/29 07:46:33;;;;;;;;;;;12.20;86.00;;;;;;5085537;28;19924;-91
2022/05/29 07:49:02;;;;;;;;;;;12.20;86.00;;;;;;5085170;28;19969;-92
2022/05/29 07:51:29;;;;;;;;;;;12.20;85.90;;;;;;5086329;28;19984;-92
2022/05/29 07:53:57;;;;;;;;;;;12.20;85.90;;;;;;5082457;28;20469;-92
2022/05/29 07:56:25;;;;;;;;;;;12.30;85.90;;;;;;5091107;28;20670;-92
2022/05/29 07:58:52;;;;;;;;;;;12.30;85.90;;;;;;5090085;28;20428;-92
2022/05/29 08:01:19;;;;;;;;;;;12.30;86.00;;;;;;5087825;28;20112;-92
2022/05/29 08:03:46;;;;;;;;;;;12.30;86.00;;;;;;5087796;28;19931;-92
2022/05/29 08:06:14;;;;;;;;;;;12.30;86.00;;;;;;5095131;28;19935;-93
2022/05/29 08:08:41;;;;;;;;;;;12.30;86.00;;;;;;5096811;28;19923;-93
2022/05/29 08:11:08;;;;;;;;;;;12.30;86.00;;;;;;5093070;27;19925;-93
2022/05/29 08:13:37;;;;;;;;;;;12.30;86.00;;;;;;5093973;28;19970;-94
2022/05/29 08:16:04;;;;;;;;;;;12.30;86.00;;;;;;5098238;28;19934;-93
2022/05/29 08:18:32;;;;;;;;;;;12.40;86.10;;;;;;5089645;28;19931;-92
2022/05/29 08:20:59;;;;;;;;;;;12.40;86.70;;;;;;5081827;28;19928;-93
2022/05/29 08:23:31;;;;;;;;;;;12.40;86.10;;;;;;5088105;28;19924;-95
2022/05/29 08:32:01;;;;;;;;;;;12.40;86.20;;;;;;5099760;28;19928;-93
2022/05/29 08:34:34;;;;;;;;;;;12.50;86.30;;;;;;5092283;28;19924;-93
2022/05/29 08:37:06;;;;;;;;;;;12.50;86.30;;;;;;5089482;28;19928;-93
2022/05/29 08:39:42;;;;;;;;;;;12.50;86.30;;;;;;5094578;28;19936;-92
2022/05/29 08:42:12;;;;;;;;;;;12.50;86.50;;;;;;5087587;28;19930;-92
2022/05/29 08:44:59;;;;;;;;;;;;;;;;;;;;;
2022/05/29 08:47:30;;;;;;;;;;;12.50;86.50;;;;;;5088711;28;19946;-93
2022/05/29 08:49:58;;;;;;;;;;;12.60;86.70;;;;;;5098543;28;19934;-94
2022/05/29 08:52:34;;;;;;;;;;;12.50;86.60;;;;;;5093283;28;19981;-93
2022/05/29 08:55:09;;;;;;;;;;;12.60;86.80;;;;;;5087491;28;19935;-92
2022/05/29 08:57:45;;;;;;;;;;;12.60;86.80;;;;;;5093696;28;19966;-93
2022/05/29 09:00:21;;;;;;;;;;;12.60;86.80;;;;;;5101631;27;20015;-92
2022/05/29 09:02:52;;;;;;;;;;;12.60;86.90;;;;;;5094292;28;19924;-92
2022/05/29 09:05:30;;;;;;;;;;;12.60;86.90;;;;;;5089342;28;19939;-93
2022/05/29 09:08:08;;;;;;;;;;;12.70;87.00;;;;;;5090642;28;19928;-93
2022/05/29 09:11:09;;;;;;;;;;;12.70;87.20;;;;;;5089243;28;19931;-94
2022/05/29 09:13:51;;;;;;;;;;;12.70;87.20;;;;;;5098918;28;19928;-93
2022/05/29 09:16:23;;;;;;;;;;;12.70;87.20;;;;;;5091661;28;19991;-93
2022/05/29 09:19:00;;;;;;;;;;;12.80;87.30;;;;;;5106129;27;20070;-93
2022/05/29 09:21:30;;;;;;;;;;;12.70;87.20;;;;;;5088262;28;19925;-92
2022/05/29 09:24:13;;;;;;;;;;;12.70;87.10;;;;;;5090062;28;19936;-93
2022/05/29 09:26:56;;;;;;;;;;;12.80;87.10;;;;;;5097663;28;19912;-93
2022/05/29 09:29:28;;;;;;;;;;;12.80;86.90;;;;;;5098035;28;19924;-93
2022/05/29 09:32:23;;;;;;;;;;;12.80;86.90;;;;;;5085385;28;19925;-92
2022/05/29 09:35:13;;;;;;;;;;;12.80;86.70;;;;;;5104660;28;20086;-93
2022/05/29 09:37:59;;;;;;;;;;;12.80;86.80;;;;;;5107920;27;19928;-93
2022/05/29 09:40:37;;;;;;;;;;;12.80;86.80;;;;;;5094533;28;20019;-93
2022/05/29 09:43:14;;;;;;;;;;;12.80;86.90;;;;;;5092256;28;19970;-92
2022/05/29 09:45:51;;;;;;;;;;;12.90;86.90;;;;;;5087547;28;19924;-94
2022/05/29 09:51:15;;;;;;;;;;;12.90;86.80;;;;;;5089276;28;19920;-93
2022/05/29 09:53:45;;;;;;;;;;;12.90;86.70;;;;;;5094811;28;19923;-93
2022/05/29 09:56:39;;;;;;;;;;;12.90;86.60;;;;;;5089915;28;20442;-93
2022/05/29 10:02:12;;;;;;;;;;;12.90;86.40;;;;;;5096518;28;19948;-94
2022/05/29 10:04:43;;;;;;;;;;;12.90;86.40;;;;;;5085537;28;19925;-93
2022/05/29 10:07:21;;;;;;;;;;;12.90;86.30;;;;;;5090380;28;20108;-92
2022/05/29 10:10:00;;;;;;;;;;;12.90;86.40;;;;;;5086762;28;19949;-92
2022/05/29 10:12:47;;;;;;;;;;;13.00;86.60;;;;;;5085901;28;19928;-93
2022/05/29 10:15:16;;;;;;;;;;;13.00;86.60;;;;;;5091357;28;19924;-93
2022/05/29 10:17:45;;;;;;;;;;;13.00;86.40;;;;;;5096534;28;20391;-94
2022/05/29 10:23:45;;;;;;;;;;;12.90;86.40;;;;;;5081437;28;19925;-93
2022/05/29 10:26:18;;;;;;;;;;;13.00;86.30;;;;;;5085830;28;20352;-93
2022/05/29 10:29:03;;;;;;;;;;;13.00;86.30;;;;;;5090401;28;19967;-93
2022/05/29 10:31:41;;;;;;;;;;;13.00;86.30;;;;;;5090672;28;20022;-94
2022/05/29 10:34:15;;;;;;;;;;;13.00;85.90;;;;;;5079479;28;19958;-93
2022/05/29 10:36:43;;;;;;;;;;;13.00;85.90;;;;;;5085368;28;19924;-92
2022/05/29 10:39:27;;;;;;;;;;;13.00;86.00;;;;;;5085291;28;19924;-93
2022/05/29 10:41:59;;;;;;;;;;;13.10;86.10;;;;;;5088319;28;19931;-94
2022/05/29 10:44:40;;;;;;;;;;;13.10;86.00;;;;;;5089034;28;19924;-93
2022/05/29 10:47:10;;;;;;;;;;;13.10;86.10;;;;;;5088598;28;19932;-93
2022/05/29 10:49:47;;;;;;;;;;;13.10;85.80;;;;;;5088537;28;19974;-93
2022/05/29 10:52:35;;;;;;;;;;;13.10;86.00;;;;;;5089958;28;19923;-93
2022/05/29 10:55:22;;;;;;;;;;;13.10;85.90;;;;;;5093545;28;20023;-92
2022/05/29 10:58:07;;;;;;;;;;;13.10;86.00;;;;;;5087328;28;19927;-92
2022/05/29 11:00:39;;;;;;;;;;;13.10;85.90;;;;;;5089909;28;19924;-92
2022/05/29 11:03:34;;;;;;;;;;;13.10;85.90;;;;;;5089045;28;19935;-92
2022/05/29 11:06:22;;;;;;;;;;;13.10;85.90;;;;;;5075888;28;19956;-91
2022/05/29 11:09:02;;;;;;;;;;;13.10;85.70;;;;;;5087326;28;19951;-92
2022/05/29 11:11:47;;;;;;;;;;;13.20;85.80;;;;;;5091939;28;20011;-93
2022/05/29 11:14:28;;;;;;;;;;;13.20;85.80;;;;;;5081005;28;19928;-94
2022/05/29 11:17:19;;;;;;;;;;;13.20;85.90;;;;;;5084841;28;19948;-93
2022/05/29 11:20:00;;;;;;;;;;;13.20;86.00;;;;;;5087946;28;19935;-92
2022/05/29 11:22:45;;;;;;;;;;;;;;;;;;;;;
2022/05/29 11:25:38;;;;;;;;;;;13.20;86.10;;;;;;5099645;28;19946;-94
2022/05/29 11:31:11;;;;;;;;;;;13.10;86.50;;;;;;5090423;28;19981;-93
2022/05/29 11:33:50;;;;;;;;;;;13.20;86.60;;;;;;5086716;28;19935;-94
2022/05/29 11:36:35;;;;;;;;;;;13.20;86.60;;;;;;5096003;28;19931;-93
2022/05/29 11:39:47;;;;;;;;;;;13.20;87.40;;;;;;5084544;28;19931;-94
2022/05/29 11:42:43;;;;;;;;;;;13.20;86.80;;;;;;5087543;28;20019;-93
2022/05/29 11:51:22;;;;;;;;;;;13.30;87.10;;;;;;5091207;28;20006;-93
2022/05/29 11:53:55;;;;;;;;;;;13.30;87.90;;;;;;5087168;28;19928;-93
2022/05/29 11:56:29;;;;;;;;;;;13.30;88.00;;;;;;5095126;28;19924;-93
2022/05/29 11:59:09;;;;;;;;;;;13.20;88.10;;;;;;5093376;28;19928;-94
2022/05/29 12:01:48;;;;;;;;;;;13.20;88.10;;;;;;5089974;28;19932;-94
2022/05/29 12:04:19;;;;;;;;;;;13.10;87.60;;;;;;5101998;28;19925;-95
2022/05/29 12:06:54;;;;;;;;;;;13.10;87.50;;;;;;5102276;28;19925;-95
2022/05/29 12:12:40;;;;;;;;;;;13.10;87.20;;;;;;5119745;28;19935;-94
2022/05/29 12:15:30;;;;;;;;;;;13.10;87.20;;;;;;5101011;28;20353;-95
2022/05/29 12:18:11;;;;;;;;;;;13.00;87.00;;;;;;5097602;28;19919;-94
2022/05/29 12:21:00;;;;;;;;;;;13.10;87.00;;;;;;5096336;28;19947;-93
2022/05/29 12:23:33;;;;;;;;;;;13.10;87.10;;;;;;5095947;28;19928;-94
2022/05/29 12:26:06;;;;;;;;;;;13.10;87.20;;;;;;5106285;28;19932;-95
2022/05/29 12:28:41;;;;;;;;;;;13.00;87.00;;;;;;5104924;28;19924;-94
2022/05/29 12:31:12;;;;;;;;;;;13.00;87.10;;;;;;5101789;28;19924;-94
2022/05/29 12:33:44;;;;;;;;;;;13.10;87.00;;;;;;5132287;27;20270;-94
2022/05/29 12:36:18;;;;;;;;;;;13.00;87.00;;;;;;5097971;22;19932;-83
2022/05/29 12:38:53;;;;;;;;;;;13.00;87.10;;;;;;5047460;28;19928;-83
2022/05/29 12:41:24;;;;;;;;;;;13.00;87.00;;;;;;5064568;28;19925;-81
2022/05/29 12:44:09;;;;;;;;;;;13.00;87.00;;;;;;5056847;28;20753;-83
2022/05/29 12:46:53;;;;;;;;;;;13.00;87.10;;;;;;5043996;28;19933;-84
2022/05/29 12:49:28;;;;;;;;;;;13.00;87.30;;;;;;5044475;28;19933;-83
2022/05/29 12:52:16;;;;;;;;;;;13.00;87.60;;;;;;5040466;28;19963;-82
2022/05/29 12:55:03;;;;;;;;;;;13.00;87.60;;;;;;5044116;28;20391;-84
2022/05/29 12:58:00;;;;;;;;;;;13.00;87.60;;;;;;5046665;28;19925;-82
2022/05/29 13:00:45;;;;;;;;;;;13.00;87.60;;;;;;5042806;28;19936;-84
2022/05/29 13:03:25;;;;;;;;;;;13.00;87.80;;;;;;5039549;28;19932;-82
2022/05/29 13:06:05;;;;;;;;;;;13.00;87.80;;;;;;5039651;28;20473;-83
2022/05/29 13:08:42;;;;;;;;;;;13.10;87.80;;;;;;5045796;28;19931;-82
2022/05/29 13:11:11;;;;;;;;;;;13.10;87.80;;;;;;5036619;28;19925;-84
2022/05/29 13:13:41;;;;;;;;;;;13.10;87.80;;;;;;5032143;28;20395;-84
2022/05/29 13:16:22;;;;;;;;;;;13.10;87.90;;;;;;5030112;28;20612;-84
2022/05/29 13:21:59;;;;;;;;;;;13.10;88.00;;;;;;4998489;28;19920;-82
2022/05/29 13:24:37;;;;;;;;;;;13.20;88.00;;;;;;5047244;28;20387;-84
2022/05/29 13:27:26;;;;;;;;;;;13.20;87.70;;;;;;5044237;28;20441;-82
2022/05/29 13:29:55;;;;;;;;;;;13.20;87.40;;;;;;5035589;28;19968;-83
2022/05/29 13:32:24;;;;;;;;;;;13.20;87.40;;;;;;5034367;28;20035;-84
2022/05/29 13:35:15;;;;;;;;;;;13.20;87.60;;;;;;5038987;28;19929;-83
2022/05/29 13:37:45;;;;;;;;;;;13.30;87.90;;;;;;5042076;28;20031;-84
2022/05/29 13:40:37;;;;;;;;;;;13.30;87.30;;;;;;5046082;28;19933;-84
2022/05/29 13:43:20;;;;;;;;;;;13.30;87.30;;;;;;5049047;28;19933;-84
2022/05/29 13:45:56;;;;;;;;;;;13.40;87.50;;;;;;5026559;28;20010;-84
2022/05/29 13:48:25;;;;;;;;;;;13.40;87.60;;;;;;5044994;28;19932;-84
2022/05/29 13:50:57;;;;;;;;;;;13.50;87.60;;;;;;5046546;28;19925;-84
2022/05/29 13:53:26;;;;;;;;;;;13.50;88.00;;;;;;5049067;28;19935;-84
2022/05/29 13:55:57;;;;;;;;;;;13.50;88.20;;;;;;5063165;28;19987;-84
2022/05/29 14:04:08;;;;;;;;;;;13.60;88.30;;;;;;5053658;28;20019;-84
2022/05/29 14:06:39;;;;;;;;;;;13.60;88.20;;;;;;5044711;28;19933;-84
2022/05/29 14:09:07;;;;;;;;;;;13.60;88.30;;;;;;5042061;28;19926;-84
2022/05/29 14:11:52;;;;;;;;;;;13.70;88.50;;;;;;5024035;28;19960;-84
2022/05/29 14:14:38;;;;;;;;;;;13.70;88.50;;;;;;5049987;28;19968;-84
2022/05/29 14:17:13;;;;;;;;;;;13.70;88.50;;;;;;5040187;28;19925;-84
2022/05/29 14:19:48;;;;;;;;;;;13.70;88.00;;;;;;5046573;28;20051;-84
2022/05/29 14:22:31;;;;;;;;;;;13.80;87.90;;;;;;5044422;28;19925;-83
2022/05/29 14:25:15;;;;;;;;;;;13.80;87.50;;;;;;5042258;28;19925;-84
2022/05/29 14:28:08;;;;;;;;;;;13.80;87.60;;;;;;5039314;28;19925;-84
2022/05/29 14:30:55;;;;;;;;;;;13.90;88.30;;;;;;5027559;28;19924;-83
2022/05/29 14:33:38;;;;;;;;;;;13.90;87.70;;;;;;5042426;28;19933;-84
2022/05/29 14:36:23;;;;;;;;;;;13.90;87.80;;;;;;5033566;28;19971;-84
2022/05/29 14:38:59;;;;;;;;;;;13.90;88.00;;;;;;5030538;28;19970;-84
2022/05/29 14:41:28;;;;;;;;;;;13.90;88.00;;;;;;5043070;28;19987;-84
2022/05/29 14:43:55;;;;;;;;;;;14.00;88.00;;;;;;5049953;28;19932;-84
2022/05/29 14:46:28;;;;;;;;;;;14.00;87.80;;;;;;5026018;28;19960;-84
2022/05/29 14:48:59;;;;;;;;;;;14.00;88.00;;;;;;5043867;28;19947;-84
2022/05/29 14:51:38;;;;;;;;;;;14.00;88.00;;;;;;5039434;28;20383;-82
2022/05/29 14:54:12;;;;;;;;;;;14.00;88.10;;;;;;5042619;28;19967;-84
2022/05/29 14:56:40;;;;;;;;;;;14.00;88.10;;;;;;5038990;28;19924;-84
2022/05/29 14:59:14;;;;;;;;;;;14.10;88.20;;;;;;5036973;28;19957;-84
2022/05/29 15:01:42;;;;;;;;;;;14.10;88.00;;;;;;5043396;28;19933;-84
2022/05/29 15:04:13;;;;;;;;;;;14.10;88.10;;;;;;5042994;28;20276;-84
2022/05/29 15:12:21;;;;;;;;;;;14.20;88.20;;;;;;5039304;28;19922;-84
2022/05/29 15:14:48;;;;;;;;;;;14.20;88.20;;;;;;5043836;28;20305;-82
2022/05/29 15:17:21;;;;;;;;;;;14.20;88.00;;;;;;5042647;28;19931;-80
2022/05/29 15:25:22;;;;;;;;;;;14.10;88.10;;;;;;5028521;28;19936;-81
2022/05/29 15:27:52;;;;;;;;;;;14.20;87.40;;;;;;5022597;28;19925;-81
2022/05/29 15:30:22;;;;;;;;;;;14.20;87.10;;;;;;5024825;28;20007;-81
2022/05/29 15:32:51;;;;;;;;;;;14.20;87.00;;;;;;5042249;28;19935;-81
2022/05/29 15:35:23;;;;;;;;;;;14.30;86.90;;;;;;5043348;28;20306;-81
2022/05/29 15:38:00;;;;;;;;;;;14.30;86.60;;;;;;5044536;28;19988;-82
2022/05/29 15:40:42;;;;;;;;;;;14.30;86.60;;;;;;5025358;28;19926;-82
2022/05/29 15:43:15;;;;;;;;;;;14.30;86.70;;;;;;5031879;28;20670;-81
2022/05/29 15:45:47;;;;;;;;;;;14.30;86.50;;;;;;5015603;28;19940;-80
2022/05/29 15:48:38;;;;;;;;;;;14.30;86.70;;;;;;5036771;28;20007;-81
2022/05/29 15:51:11;;;;;;;;;;;14.30;86.70;;;;;;5043194;28;20007;-80
2022/05/29 15:53:53;;;;;;;;;;;14.40;86.30;;;;;;5036406;28;19929;-81
2022/05/29 15:56:23;;;;;;;;;;;14.30;86.10;;;;;;5034898;28;20091;-81
2022/05/29 15:58:55;;;;;;;;;;;14.40;86.10;;;;;;5038006;28;19935;-81